createdAt,value
2018-04-26T00:01:05.544Z,71.04
2018-04-26T00:03:33.136Z,72.08
2018-04-26T00:06:00.656Z,71.60
2018-04-26T00:08:28.176Z,72.47
2018-04-26T00:10:55.713Z,71.74
2018-04-26T00:13:23.225Z,72.34
2018-04-26T00:15:50.756Z,71.46
2018-04-26T00:18:18.287Z,71.09
2018-04-26T00:20:45.800Z,72.19
2018-04-26T00:23:13.344Z,71.18
2018-04-26T00:25:40.903Z,71.34
2018-04-26T00:28:08.456Z,72.57
2018-04-26T00:30:35.985Z,71.91
2018-04-26T00:33:03.546Z,71.54
2018-04-26T00:35:31.104Z,72.30
2018-04-26T00:37:58.631Z,73.34
2018-04-26T00:40:26.189Z,73.49
2018-04-26T00:42:53.749Z,72.71
2018-04-26T00:45:21.329Z,73.45
2018-04-26T00:47:48.823Z,72.23
2018-04-26T00:50:16.352Z,72.58
2018-04-26T00:52:43.872Z,72.00
2018-04-26T00:55:11.395Z,72.43
2018-04-26T00:57:38.904Z,71.33
2018-04-26T01:00:06.431Z,70.96
2018-04-26T01:02:33.961Z,70.79
2018-04-26T01:05:01.493Z,71.35
2018-04-26T01:07:29.011Z,73.00
2018-04-26T01:09:56.528Z,72.81
2018-04-26T01:12:24.046Z,74.02
2018-04-26T01:14:51.573Z,73.79
2018-04-26T01:17:19.087Z,72.14
2018-04-26T01:19:46.604Z,73.81
2018-04-26T01:22:14.130Z,72.61
2018-04-26T01:24:41.648Z,74.12
2018-04-26T01:27:09.177Z,72.07
2018-04-26T01:29:36.709Z,72.90
2018-04-26T01:32:04.223Z,71.92
2018-04-26T01:34:31.730Z,72.46
2018-04-26T01:37:11.092Z,72.26
2018-04-26T01:39:38.606Z,72.00
2018-04-26T01:42:06.128Z,73.02
2018-04-26T01:44:33.664Z,72.05
2018-04-26T01:47:01.221Z,72.85
2018-04-26T01:49:28.733Z,72.64
2018-04-26T01:51:56.249Z,72.97
2018-04-26T01:54:23.776Z,72.71
2018-04-26T01:56:51.299Z,72.80
2018-04-26T01:59:18.828Z,72.83
2018-04-26T02:01:46.352Z,73.32
2018-04-26T02:04:13.887Z,72.85
2018-04-26T02:06:41.399Z,73.18
2018-04-26T02:09:08.915Z,73.09
2018-04-26T02:11:36.436Z,72.88
2018-04-26T02:14:03.971Z,73.08
2018-04-26T02:16:31.481Z,73.61
2018-04-26T02:18:58.996Z,73.60
2018-04-26T02:21:26.526Z,74.11
2018-04-26T02:23:54.059Z,73.66
2018-04-26T02:26:21.594Z,73.53
2018-04-26T02:28:49.103Z,73.07
2018-04-26T02:31:16.634Z,74.78
2018-04-26T02:33:44.150Z,74.11
2018-04-26T02:36:11.675Z,75.15
2018-04-26T02:38:39.195Z,73.86
2018-04-26T02:41:06.710Z,73.53
2018-04-26T02:43:34.261Z,73.67
2018-04-26T02:46:01.787Z,74.54
2018-04-26T02:48:29.303Z,74.07
2018-04-26T02:50:56.835Z,78.19
2018-04-26T02:53:24.349Z,76.12
2018-04-26T02:55:51.866Z,74.78
2018-04-26T02:58:19.412Z,75.97
2018-04-26T03:00:46.927Z,75.86
2018-04-26T03:03:14.482Z,74.65
2018-04-26T03:05:42.005Z,74.57
2018-04-26T03:08:09.584Z,75.64
2018-04-26T03:10:37.066Z,76.37
2018-04-26T03:13:04.581Z,74.77
2018-04-26T03:15:32.129Z,74.49
2018-04-26T03:17:59.661Z,74.58
2018-04-26T03:20:27.191Z,74.39
2018-04-26T03:22:54.706Z,74.35
2018-04-26T03:25:22.235Z,74.87
2018-04-26T03:27:49.753Z,74.65
2018-04-26T03:30:17.282Z,74.13
2018-04-26T03:32:44.811Z,74.89
2018-04-26T03:35:12.328Z,75.85
2018-04-26T03:37:39.855Z,74.89
2018-04-26T03:40:07.373Z,75.77
2018-04-26T03:42:34.889Z,76.01
2018-04-26T03:45:02.409Z,75.94
2018-04-26T03:47:29.924Z,76.36
2018-04-26T03:49:57.557Z,75.18
2018-04-26T03:52:25.089Z,76.27
2018-04-26T03:54:52.674Z,76.74
2018-04-26T03:57:20.223Z,78.63
2018-04-26T03:59:59.571Z,78.46
2018-04-26T04:02:38.958Z,77.60
2018-04-26T04:05:29.333Z,77.27
2018-04-26T04:07:56.856Z,76.97
2018-04-26T04:10:24.410Z,76.79
2018-04-26T04:12:51.926Z,76.15
2018-04-26T04:15:19.444Z,76.81
2018-04-26T04:17:47.002Z,77.34
2018-04-26T04:20:14.548Z,76.44
2018-04-26T04:22:42.088Z,78.90
2018-04-26T04:25:09.664Z,77.31
2018-04-26T04:27:37.237Z,77.23
2018-04-26T04:30:04.752Z,77.90
2018-04-26T04:32:32.265Z,77.59
2018-04-26T04:34:59.791Z,77.44
2018-04-26T04:37:27.300Z,76.92
2018-04-26T04:39:54.843Z,77.16
2018-04-26T04:42:22.350Z,77.76
2018-04-26T04:44:49.882Z,77.33
2018-04-26T04:47:17.504Z,76.54
2018-04-26T04:49:45.078Z,77.43
2018-04-26T04:52:12.604Z,76.73
2018-04-26T04:54:40.134Z,77.33
2018-04-26T04:57:07.650Z,77.31
2018-04-26T04:59:35.175Z,76.85
2018-04-26T05:02:02.777Z,76.49
2018-04-26T05:04:30.262Z,76.88
2018-04-26T05:06:57.891Z,77.13
2018-04-26T05:09:25.420Z,76.86
2018-04-26T05:11:53.016Z,76.90
2018-04-26T05:14:20.535Z,76.05
2018-04-26T05:16:48.135Z,75.91
2018-04-26T05:19:15.662Z,76.04
2018-04-26T05:21:43.174Z,76.17
2018-04-26T05:24:10.697Z,76.53
2018-04-26T05:26:38.208Z,76.83
2018-04-26T05:29:05.731Z,76.13
2018-04-26T05:31:33.277Z,77.61
2018-04-26T05:34:00.845Z,76.49
2018-04-26T05:36:28.410Z,76.70
2018-04-26T05:38:55.933Z,77.93
2018-04-26T05:41:23.460Z,77.59
2018-04-26T05:43:50.982Z,77.35
2018-04-26T05:46:18.514Z,77.41
2018-04-26T05:48:46.073Z,76.99
2018-04-26T05:51:13.597Z,76.38
2018-04-26T05:53:41.116Z,76.78
2018-04-26T05:56:08.737Z,75.98
2018-04-26T05:58:36.245Z,75.67
2018-04-26T06:01:03.809Z,75.75
2018-04-26T06:03:31.374Z,75.28
2018-04-26T06:05:58.894Z,74.95
2018-04-26T06:08:26.425Z,75.38
2018-04-26T06:10:54.046Z,74.87
2018-04-26T06:13:21.607Z,74.74
2018-04-26T06:15:49.135Z,74.89
2018-04-26T06:18:16.728Z,74.54
2018-04-26T06:20:44.246Z,74.61
2018-04-26T06:23:11.772Z,75.37
2018-04-26T06:25:39.303Z,75.21
2018-04-26T06:28:06.827Z,75.80
2018-04-26T06:30:34.364Z,75.60
2018-04-26T06:33:01.907Z,75.48
2018-04-26T06:35:29.548Z,74.95
2018-04-26T06:37:57.089Z,75.15
2018-04-26T06:40:24.625Z,75.25
2018-04-26T06:42:52.149Z,75.36
2018-04-26T06:45:19.683Z,75.61
2018-04-26T06:47:47.331Z,75.76
2018-04-26T06:50:14.904Z,75.92
2018-04-26T06:52:42.423Z,75.48
2018-04-26T06:55:09.955Z,75.51
2018-04-26T06:57:37.481Z,75.52
2018-04-26T07:00:05.013Z,75.23
2018-04-26T07:02:32.529Z,76.09
2018-04-26T07:05:00.163Z,76.42
2018-04-26T07:07:27.687Z,76.52
2018-04-26T07:09:55.263Z,76.07
2018-04-26T07:12:22.839Z,76.23
2018-04-26T07:14:50.383Z,75.67
2018-04-26T07:17:17.918Z,77.20
2018-04-26T07:19:45.492Z,76.64
2018-04-26T07:22:13.121Z,77.40
2018-04-26T07:24:40.738Z,76.05
2018-04-26T07:27:08.265Z,78.53
2018-04-26T07:29:35.787Z,76.70
2018-04-26T07:32:03.324Z,76.61
2018-04-26T07:34:30.850Z,76.11
2018-04-26T07:36:58.364Z,76.21
2018-04-26T07:39:25.894Z,74.92
2018-04-26T07:41:53.991Z,74.26
2018-04-26T07:44:21.513Z,74.26
2018-04-26T07:46:49.044Z,71.80
2018-04-26T07:49:16.567Z,71.21
2018-04-26T07:51:44.078Z,69.01
2018-04-26T07:54:11.597Z,72.64
2018-04-26T07:56:39.223Z,67.62
2018-04-26T07:59:06.754Z,64.48
2018-04-26T08:01:34.344Z,66.18
2018-04-26T08:04:01.828Z,67.63
2018-04-26T08:06:29.364Z,66.06
2018-04-26T08:08:56.892Z,66.92
2018-04-26T08:11:24.416Z,64.31
2018-04-26T08:13:51.941Z,65.72
2018-04-26T08:16:19.456Z,59.47
2018-04-26T08:18:47.057Z,60.99
2018-04-26T08:21:14.619Z,63.87
2018-04-26T08:23:42.150Z,62.63
2018-04-26T08:26:10.585Z,63.71
2018-04-26T08:28:38.117Z,63.83
2018-04-26T08:31:05.637Z,66.85
2018-04-26T08:33:33.172Z,66.07
2018-04-26T08:36:00.704Z,66.68
2018-04-26T08:38:28.223Z,65.59
2018-04-26T08:40:55.757Z,65.69
2018-04-26T08:43:23.291Z,65.91
2018-04-26T08:45:50.820Z,66.77
2018-04-26T08:48:18.347Z,68.34
2018-04-26T08:50:45.882Z,68.23
2018-04-26T08:53:13.491Z,69.58
2018-04-26T08:55:41.025Z,69.79
2018-04-26T08:58:08.560Z,71.03
2018-04-26T09:00:36.096Z,70.83
2018-04-26T09:03:03.615Z,74.12
2018-04-26T09:05:31.136Z,73.46
2018-04-26T09:07:58.767Z,72.75
2018-04-26T09:10:26.295Z,74.11
2018-04-26T09:12:53.892Z,77.25
2018-04-26T09:15:21.418Z,76.82
2018-04-26T09:17:49.012Z,76.28
2018-04-26T09:20:16.539Z,77.28
2018-04-26T09:22:44.099Z,78.25
2018-04-26T09:25:11.628Z,77.85
2018-04-26T09:27:39.183Z,78.16
2018-04-26T09:30:06.744Z,77.08
2018-04-26T09:32:34.256Z,75.57
2018-04-26T09:35:01.780Z,78.12
2018-04-26T09:37:29.319Z,78.25
2018-04-26T09:39:56.846Z,76.89
2018-04-26T09:42:24.376Z,79.60
2018-04-26T09:44:51.909Z,77.36
2018-04-26T09:47:19.432Z,77.55
2018-04-26T09:49:46.968Z,76.44
2018-04-26T09:52:14.486Z,76.19
2018-04-26T09:54:42.101Z,75.27
2018-04-26T09:57:09.632Z,74.96
2018-04-26T09:59:37.193Z,74.30
2018-04-26T10:02:04.714Z,73.79
2018-04-26T10:04:37.982Z,73.73
2018-04-26T10:07:05.519Z,73.49
2018-04-26T10:09:33.113Z,71.17
2018-04-26T10:12:00.625Z,64.80
2018-04-26T10:14:28.139Z,70.55
2018-04-26T10:16:55.681Z,71.24
2018-04-26T10:19:23.203Z,66.37
2018-04-26T10:21:50.718Z,61.39
2018-04-26T10:24:18.251Z,61.40
2018-04-26T10:26:45.812Z,65.02
2018-04-26T10:29:13.335Z,60.54
2018-04-26T10:31:40.852Z,61.75
2018-04-26T10:34:08.373Z,53.33
2018-04-26T10:36:35.904Z,60.57
2018-04-26T10:39:03.435Z,62.51
2018-04-26T10:41:30.947Z,58.57
2018-04-26T10:43:58.527Z,58.30
2018-04-26T10:46:26.053Z,57.55
2018-04-26T10:48:53.584Z,59.35
2018-04-26T10:51:21.132Z,57.29
2018-04-26T10:53:48.666Z,56.55
2018-04-26T10:56:16.223Z,56.52
2018-04-26T10:58:43.782Z,58.22
2018-04-26T11:01:11.342Z,57.19
2018-04-26T11:03:38.856Z,58.12
2018-04-26T11:06:06.387Z,58.27
2018-04-26T11:08:34.018Z,58.51
2018-04-26T11:11:01.540Z,59.29
2018-04-26T11:13:29.069Z,57.63
2018-04-26T11:15:56.600Z,60.09
2018-04-26T11:18:24.135Z,59.61
2018-04-26T11:20:51.638Z,59.19
2018-04-26T11:23:19.161Z,58.76
2018-04-26T11:25:46.710Z,59.68
2018-04-26T11:28:14.219Z,60.20
2018-04-26T11:30:41.722Z,60.97
2018-04-26T11:33:09.255Z,60.36
2018-04-26T11:35:36.781Z,60.52
2018-04-26T11:38:04.308Z,61.91
2018-04-26T11:40:31.889Z,63.75
2018-04-26T11:42:59.413Z,62.20
2018-04-26T11:45:26.931Z,62.54
2018-04-26T11:47:54.444Z,63.49
2018-04-26T11:50:22.001Z,61.93
2018-04-26T11:52:49.532Z,61.71
2018-04-26T11:55:17.151Z,61.53
2018-04-26T11:57:44.684Z,62.98
2018-04-26T12:00:12.207Z,63.00
2018-04-26T12:02:39.821Z,62.51
2018-04-26T12:05:07.292Z,62.69
2018-04-26T12:07:34.830Z,62.23
2018-04-26T12:10:02.432Z,63.01
2018-04-26T12:12:29.919Z,63.40
2018-04-26T12:14:57.447Z,62.80
2018-04-26T12:17:24.962Z,62.12
2018-04-26T12:19:52.554Z,62.43
2018-04-26T12:22:20.064Z,61.96
2018-04-26T12:24:47.589Z,61.57
2018-04-26T12:27:15.125Z,62.10
2018-04-26T12:29:42.647Z,60.77
2018-04-26T12:32:10.167Z,59.75
2018-04-26T12:34:37.687Z,59.26
2018-04-26T12:37:05.226Z,58.57
2018-04-26T12:39:32.836Z,58.46
2018-04-26T12:42:00.511Z,57.43
2018-04-26T12:44:28.163Z,57.98
2018-04-26T12:46:55.672Z,57.08
2018-04-26T12:49:23.269Z,58.14
2018-04-26T12:51:50.780Z,58.54
2018-04-26T12:54:18.319Z,59.30
2018-04-26T12:56:45.949Z,59.26
2018-04-26T12:59:13.464Z,59.95
2018-04-26T13:01:41.063Z,59.84
2018-04-26T13:04:08.581Z,60.49
2018-04-26T13:06:36.181Z,60.67
2018-04-26T13:09:03.700Z,62.51
2018-04-26T13:11:31.226Z,67.69
2018-04-26T13:13:58.750Z,66.96
2018-04-26T13:16:26.311Z,66.13
2018-04-26T13:18:53.827Z,66.21
2018-04-26T13:21:21.471Z,67.49
2018-04-26T13:23:48.971Z,66.09
2018-04-26T13:26:16.538Z,69.42
2018-04-26T13:28:44.119Z,68.87
2018-04-26T13:31:11.640Z,69.79
2018-04-26T13:33:39.170Z,69.50
2018-04-26T13:36:06.688Z,68.78
2018-04-26T13:38:34.207Z,68.83
2018-04-26T13:41:01.820Z,67.14
2018-04-26T13:43:29.384Z,66.65
2018-04-26T13:45:56.940Z,66.38
2018-04-26T13:48:24.467Z,66.21
2018-04-26T13:50:52.055Z,65.70
2018-04-26T13:53:19.645Z,65.52
2018-04-26T13:55:47.175Z,65.75
2018-04-26T13:58:14.691Z,64.89
2018-04-26T14:00:42.272Z,64.53
2018-04-26T14:03:09.824Z,65.39
2018-04-26T14:05:37.387Z,65.12
2018-04-26T14:08:04.909Z,65.35
2018-04-26T14:10:32.541Z,65.42
2018-04-26T14:13:00.063Z,64.96
2018-04-26T14:15:27.591Z,63.73
2018-04-26T14:17:55.122Z,61.81
2018-04-26T14:20:22.644Z,60.96
2018-04-26T14:22:50.193Z,61.13
2018-04-26T14:25:17.735Z,61.39
2018-04-26T14:27:45.258Z,60.57
2018-04-26T14:30:12.799Z,59.99
2018-04-26T14:32:40.316Z,60.15
2018-04-26T14:35:07.878Z,58.17
2018-04-26T14:37:35.413Z,58.90
2018-04-26T14:40:02.949Z,59.36
2018-04-26T14:42:30.514Z,59.14
2018-04-26T14:44:58.076Z,58.31
2018-04-26T14:47:25.635Z,58.18
2018-04-26T14:49:53.159Z,57.82
2018-04-26T14:52:20.735Z,57.42
2018-04-26T14:54:48.262Z,58.23
2018-04-26T14:57:15.803Z,58.62
2018-04-26T14:59:43.332Z,59.20
2018-04-26T15:02:10.890Z,62.14
2018-04-26T15:04:38.418Z,66.56
2018-04-26T15:07:05.935Z,69.17
2018-04-26T15:09:33.465Z,71.31
2018-04-26T15:12:00.976Z,72.28
2018-04-26T15:14:28.513Z,72.48
2018-04-26T15:16:56.027Z,73.37
2018-04-26T15:19:23.555Z,71.80
2018-04-26T15:21:51.108Z,71.95
2018-04-26T15:24:18.624Z,71.76
2018-04-26T15:26:46.146Z,71.11
2018-04-26T15:29:13.670Z,72.94
2018-04-26T15:31:41.186Z,72.67
2018-04-26T15:34:08.756Z,72.95
2018-04-26T15:36:36.275Z,71.16
2018-04-26T15:39:03.800Z,72.36
2018-04-26T15:41:31.335Z,71.74
2018-04-26T15:43:58.899Z,70.51
2018-04-26T15:46:26.455Z,71.68
2018-04-26T15:48:54.008Z,71.76
2018-04-26T15:51:21.541Z,69.88
2018-04-26T15:54:01.088Z,69.81
2018-04-26T15:56:46.168Z,70.69
2018-04-26T15:59:25.443Z,70.36
2018-04-26T16:02:31.283Z,72.82
2018-04-26T16:05:16.515Z,71.72
2018-04-26T16:08:01.734Z,70.22
2018-04-26T16:10:46.809Z,70.50
2018-04-26T16:13:31.960Z,70.05
2018-04-26T16:16:17.111Z,69.19
2018-04-26T16:18:56.379Z,69.05
2018-04-26T16:21:35.771Z,68.79
2018-04-26T16:24:32.768Z,68.75
2018-04-26T16:27:17.805Z,70.39
2018-04-26T16:29:57.272Z,70.12
2018-04-26T16:32:36.741Z,70.26
2018-04-26T16:35:21.071Z,70.14
2018-04-26T16:38:06.318Z,70.29
2018-04-26T16:40:33.832Z,70.26
2018-04-26T16:43:01.440Z,69.11
2018-04-26T16:45:28.896Z,68.29
2018-04-26T16:47:56.415Z,68.06
2018-04-26T16:50:23.927Z,67.22
2018-04-26T16:52:51.450Z,67.01
2018-04-26T16:55:19.060Z,66.98
2018-04-26T16:57:46.571Z,67.65
2018-04-26T17:00:14.097Z,67.53
2018-04-26T17:02:41.612Z,67.35
2018-04-26T17:05:09.198Z,67.67
2018-04-26T17:07:36.861Z,67.30
2018-04-26T17:10:04.394Z,67.20
2018-04-26T17:12:31.978Z,67.21
2018-04-26T17:14:59.503Z,66.77
2018-04-26T17:17:27.034Z,67.55
2018-04-26T17:19:54.557Z,67.82
2018-04-26T17:22:22.229Z,67.86
2018-04-26T17:24:49.881Z,68.46
2018-04-26T17:27:17.409Z,68.95
2018-04-26T17:29:44.936Z,70.43
2018-04-26T17:32:12.564Z,70.14
2018-04-26T17:34:40.095Z,69.81
2018-04-26T17:37:07.623Z,68.47
2018-04-26T17:39:35.243Z,68.99
2018-04-26T17:42:02.787Z,69.68
2018-04-26T17:44:30.361Z,70.28
2018-04-26T17:46:57.880Z,69.02
2018-04-26T17:49:25.427Z,70.16
2018-04-26T17:51:52.979Z,68.55
2018-04-26T17:54:20.532Z,69.14
2018-04-26T17:56:48.057Z,70.53
2018-04-26T17:59:15.600Z,70.88
2018-04-26T18:01:43.137Z,69.68
2018-04-26T18:04:10.663Z,71.13
2018-04-26T18:06:38.192Z,73.38
2018-04-26T18:09:05.707Z,73.13
2018-04-26T18:11:36.098Z,71.89
2018-04-26T18:14:03.633Z,72.36
2018-04-26T18:16:31.171Z,71.74
2018-04-26T18:18:58.699Z,70.26
2018-04-26T18:21:26.227Z,71.32
2018-04-26T18:23:53.761Z,71.61
2018-04-26T18:26:21.288Z,72.03
2018-04-26T18:28:48.820Z,71.71
2018-04-26T18:31:16.349Z,72.65
2018-04-26T18:33:43.886Z,71.58
2018-04-26T18:36:11.405Z,71.49
2018-04-26T18:38:38.929Z,70.50
2018-04-26T18:41:06.463Z,71.46
2018-04-26T18:43:33.984Z,70.25
2018-04-26T18:46:01.522Z,70.13
2018-04-26T18:48:29.071Z,70.70
2018-04-26T18:50:56.591Z,70.06
2018-04-26T18:53:24.120Z,71.18
2018-04-26T18:55:52.745Z,69.48
2018-04-26T18:58:20.272Z,70.33
2018-04-26T19:00:47.805Z,69.61
2018-04-26T19:03:18.227Z,70.27
2018-04-26T19:05:45.756Z,69.87
2018-04-26T19:08:13.265Z,71.13
2018-04-26T19:10:40.783Z,71.28
2018-04-26T19:13:08.323Z,71.28
2018-04-26T19:15:35.922Z,70.64
2018-04-26T19:18:03.397Z,70.29
2018-04-26T19:20:30.916Z,70.29
2018-04-26T19:22:58.433Z,70.84
2018-04-26T19:25:25.961Z,71.00
2018-04-26T19:27:53.486Z,70.17
2018-04-26T19:30:21.031Z,70.33
2018-04-26T19:32:48.562Z,70.02
2018-04-26T19:35:16.094Z,70.71
2018-04-26T19:37:43.626Z,70.94
2018-04-26T19:40:11.477Z,71.57
2018-04-26T19:42:39.044Z,71.41
2018-04-26T19:45:06.561Z,71.10
2018-04-26T19:47:34.076Z,72.30
2018-04-26T19:50:01.596Z,72.87
2018-04-26T19:52:29.116Z,72.73
2018-04-26T19:54:56.648Z,73.15
2018-04-26T19:57:24.165Z,72.01
2018-04-26T19:59:51.695Z,73.92
2018-04-26T20:02:19.224Z,72.23
2018-04-26T20:04:46.740Z,73.67
2018-04-26T20:07:14.273Z,74.53
2018-04-26T20:09:41.803Z,72.26
2018-04-26T20:12:09.316Z,73.19
2018-04-26T20:14:36.852Z,73.29
2018-04-26T20:17:04.374Z,74.71
2018-04-26T20:19:31.889Z,73.87
2018-04-26T20:21:59.393Z,73.54
2018-04-26T20:24:26.957Z,73.79
2018-04-26T20:26:54.473Z,74.49
2018-04-26T20:29:22.004Z,73.62
2018-04-26T20:31:49.535Z,74.86
2018-04-26T20:34:17.048Z,73.83
2018-04-26T20:36:44.582Z,75.37
2018-04-26T20:39:12.108Z,73.58
2018-04-26T20:41:54.548Z,75.28
2018-04-26T20:44:33.967Z,73.76
2018-04-26T20:47:01.526Z,75.49
2018-04-26T20:49:29.034Z,74.00
2018-04-26T20:51:56.562Z,73.09
2018-04-26T20:54:24.091Z,73.03
2018-04-26T20:56:51.609Z,74.85
2018-04-26T20:59:19.120Z,73.90
2018-04-26T21:01:46.628Z,73.82
2018-04-26T21:04:14.156Z,75.26
2018-04-26T21:06:41.694Z,73.99
2018-04-26T21:09:09.207Z,74.06
2018-04-26T21:11:36.733Z,73.95
2018-04-26T21:14:04.281Z,74.66
2018-04-26T21:16:31.781Z,74.93
2018-04-26T21:18:59.313Z,75.08
2018-04-26T21:21:26.841Z,73.79
2018-04-26T21:23:54.363Z,74.48
2018-04-26T21:26:21.888Z,75.21
2018-04-26T21:28:49.406Z,73.80
2018-04-26T21:31:16.937Z,74.03
2018-04-26T21:33:44.472Z,73.86
2018-04-26T21:36:11.983Z,73.07
2018-04-26T21:38:39.498Z,73.46
2018-04-26T21:41:07.012Z,73.69
2018-04-26T21:43:34.532Z,75.14
2018-04-26T21:46:02.060Z,73.74
2018-04-26T21:48:29.592Z,75.24
2018-04-26T21:51:02.792Z,74.28
2018-04-26T21:53:35.859Z,74.04
2018-04-26T21:56:08.907Z,73.71
2018-04-26T21:58:42.003Z,73.82
2018-04-26T22:01:15.153Z,75.51
2018-04-26T22:06:52.640Z,75.11
2018-04-26T22:09:20.231Z,74.24
2018-04-26T22:11:47.808Z,74.85
2018-04-26T22:14:15.281Z,75.62
2018-04-26T22:16:42.792Z,75.79
2018-04-26T22:19:10.299Z,75.57
2018-04-26T22:21:37.808Z,74.47
2018-04-26T22:24:05.325Z,74.11
2018-04-26T22:26:32.858Z,75.23
2018-04-26T22:29:00.384Z,75.42
2018-04-26T22:31:27.895Z,74.50
2018-04-26T22:33:55.421Z,74.74
2018-04-26T22:36:22.933Z,75.20
2018-04-26T22:38:50.473Z,75.12
2018-04-26T22:41:17.977Z,75.29
2018-04-26T22:43:45.499Z,76.51
2018-04-26T22:46:13.025Z,76.05
2018-04-26T22:48:40.537Z,75.55
2018-04-26T22:51:08.069Z,75.14
2018-04-26T22:53:35.575Z,74.60
2018-04-26T22:56:03.091Z,75.42
2018-04-26T22:58:30.606Z,75.37
2018-04-26T23:00:58.122Z,75.89
2018-04-26T23:03:25.643Z,75.94
2018-04-26T23:05:53.159Z,75.95
2018-04-26T23:08:20.683Z,76.97
2018-04-26T23:10:48.189Z,76.07
2018-04-26T23:13:15.695Z,78.04
2018-04-26T23:15:43.207Z,78.39
2018-04-26T23:18:10.721Z,76.87
2018-04-26T23:20:38.248Z,77.09
2018-04-26T23:23:05.764Z,76.45
2018-04-26T23:25:33.289Z,77.07
2018-04-26T23:28:00.803Z,77.34
2018-04-26T23:30:28.319Z,76.70
2018-04-26T23:32:55.847Z,76.98
2018-04-26T23:35:23.372Z,77.09
2018-04-26T23:37:50.888Z,77.52
2018-04-26T23:40:18.399Z,76.60
2018-04-26T23:42:45.908Z,76.54
2018-04-26T23:45:13.424Z,76.61
2018-04-26T23:47:40.935Z,77.50
2018-04-26T23:50:08.458Z,76.79
2018-04-26T23:52:35.972Z,77.33
2018-04-26T23:55:03.500Z,78.60
2018-04-26T23:57:31.022Z,79.73
2018-04-26T23:59:58.527Z,78.48
